Pagrindinis puslapis
METAR-TAF:

METAR-TAF

Oro uostai :

Cayo Coco, Kuba

platuma: 22-27-40N, ilguma: 078-19-42W, Aukštis: 4 m

Dabartinis oras

Ataskaita buvo paskelbta 1 valandą ir 8 minutes, ne 18:50 UTC
Vėjas 5 kt iš Pietvakarių, svyruoja nuo Pietų ir Vakarų
Temperatūra 35°C
Drėgmė 44%
Slėgis 1009 hPa
Matomumas: 9000 m
Išsisklaidę debesys ne aukštis 2000 ft

METAR: MUCC 121850Z 22005KT 170V280 9000 SCT020 35/21 Q1009

Laikas: 15:58 (19:58 UTC)

Prognozė

Ataskaita buvo paskelbta 2 valandos ir 58 minutes, ne 17:00 UTC
Prognozė galioja nuo 12 metu 18 UTC su 13 metu 18 UTC
Vėjas 8 kt iš Šiaurės
Matomumas: 9000 m
Išsisklaidę debesys ne aukštis 2000 ft
Tapsmas
nuo 13 metu 00 UTC su 13 metu 02 UTC
Vėjas 3 kt nuo kintamojo kryptimis

TAF: MUCC 121700Z 1218/1318 36008KT 9000 SCT020 BECMG 1300/1302 VRB03KT

Orai ataskaitas ir orų prognozės (METAR, TAF).

turimą stotys yra geltonos ir raudonos taškus žemėlapyje.

Perkelti pele per norėdami pamatyti stoties vardą.

Tada spustelėkite, norėdami matyti oro stebėjimo ir prognozės.

Norėdami pakeisti žemėlapį: spustelėkite ant žalios mygtukų su juodo kryžiaus žemyn,; žalią mygtuką su brūkšneliu, jei norite nutolinti; arba žalių rodyklių gretimoms žemėlapius.


METAR-TAF: